Time;durP1;ratioP1;P1;durP2;ratioP2;P2;SDS_P1;SDS_P2;PMS_P1;PMS_P2;Temp;Humidity;BMP_temperature;BMP_pressure;BME280_temperature;BME280_humidity;BME280_pressure;Samples;Min_cycle;Max_cycle;Signal;HPM_P1;HPM_P2
2023/12/25 00:02:03;;;;;;;2.70;1.13;;;9.90;1.00;;;;;;5110926;27;20469;-76
2023/12/25 00:04:31;;;;;;;2.60;0.80;;;9.90;1.00;;;;;;5115089;27;20473;-75
2023/12/25 00:06:59;;;;;;;1.30;0.80;;;9.90;1.00;;;;;;5108103;27;20551;-75
2023/12/25 00:09:26;;;;;;;3.43;0.87;;;9.90;1.00;;;;;;5121391;27;20516;-75
2023/12/25 00:11:53;;;;;;;1.00;0.70;;;9.80;1.00;;;;;;5110826;27;22572;-75
2023/12/25 00:14:20;;;;;;;2.50;0.60;;;9.80;1.00;;;;;;5111224;27;21160;-73
2023/12/25 00:16:47;;;;;;;1.10;0.70;;;9.80;1.00;;;;;;5114563;27;21868;-76
2023/12/25 00:19:14;;;;;;;2.20;0.87;;;9.80;1.00;;;;;;5110615;27;20545;-74
2023/12/25 00:21:41;;;;;;;2.70;0.97;;;9.80;1.00;;;;;;5108434;27;20497;-75
2023/12/25 00:24:10;;;;;;;2.83;1.00;;;9.80;1.00;;;;;;5110904;27;20464;-75
2023/12/25 00:26:40;;;;;;;2.00;0.93;;;9.80;1.00;;;;;;5112655;27;20483;-75
2023/12/25 00:29:07;;;;;;;2.27;0.93;;;9.70;1.00;;;;;;5110557;27;21227;-76
2023/12/25 00:31:33;;;;;;;2.40;0.93;;;9.60;1.00;;;;;;5112394;27;20529;-76
2023/12/25 00:34:00;;;;;;;1.30;1.00;;;9.60;1.00;;;;;;5111449;27;20906;-75
2023/12/25 00:36:27;;;;;;;1.00;0.70;;;9.50;1.00;;;;;;5108932;27;21386;-76
2023/12/25 00:38:54;;;;;;;2.47;0.93;;;9.50;1.00;;;;;;5108779;27;20542;-75
2023/12/25 00:41:27;;;;;;;2.67;1.10;;;9.50;1.00;;;;;;5114627;27;20480;-75
2023/12/25 00:43:54;;;;;;;1.80;0.80;;;9.50;1.00;;;;;;5116237;27;20513;-76
2023/12/25 00:46:21;;;;;;;2.93;0.80;;;9.60;1.00;;;;;;5098459;28;20522;-72
2023/12/25 00:48:48;;;;;;;2.97;1.30;;;9.60;1.00;;;;;;5114410;27;20547;-70
2023/12/25 00:51:15;;;;;;;2.30;1.30;;;9.70;1.00;;;;;;5112678;27;20470;-73
2023/12/25 00:53:42;;;;;;;1.60;0.90;;;9.70;1.00;;;;;;5114287;27;20596;-71
2023/12/25 00:56:09;;;;;;;3.00;1.83;;;9.70;1.00;;;;;;5112897;27;20484;-72
2023/12/25 00:58:37;;;;;;;1.70;0.90;;;9.70;1.00;;;;;;5110508;27;20462;-70
2023/12/25 01:01:04;;;;;;;3.70;1.10;;;9.70;1.00;;;;;;5109031;27;20457;-71
2023/12/25 01:03:31;;;;;;;3.47;1.50;;;9.70;1.00;;;;;;5112862;27;20496;-70
2023/12/25 01:05:58;;;;;;;4.23;1.23;;;9.80;1.00;;;;;;5108916;27;21792;-70
2023/12/25 01:08:25;;;;;;;2.00;1.33;;;9.80;1.00;;;;;;5104108;27;20470;-71
2023/12/25 01:10:52;;;;;;;1.43;1.30;;;9.80;1.00;;;;;;5109223;27;20455;-71
2023/12/25 01:13:20;;;;;;;3.23;1.50;;;9.80;1.00;;;;;;5112184;27;20472;-71
2023/12/25 01:15:48;;;;;;;4.93;1.40;;;9.90;1.00;;;;;;5107576;27;21213;-70
2023/12/25 01:18:15;;;;;;;5.10;1.37;;;9.80;1.00;;;;;;5108661;27;20591;-73
2023/12/25 01:20:43;;;;;;;3.07;1.63;;;9.90;1.00;;;;;;5112368;27;20541;-71
2023/12/25 01:23:10;;;;;;;1.70;1.00;;;9.80;1.00;;;;;;5110375;27;20885;-72
2023/12/25 01:25:37;;;;;;;5.07;1.30;;;9.80;1.00;;;;;;5110261;27;20446;-71
2023/12/25 01:28:05;;;;;;;2.27;1.47;;;9.80;1.00;;;;;;5109892;27;20455;-70
2023/12/25 01:30:32;;;;;;;2.30;1.17;;;9.90;1.00;;;;;;5112839;27;20470;-74
2023/12/25 01:33:00;;;;;;;2.10;1.27;;;9.90;1.00;;;;;;5111580;27;20501;-71
2023/12/25 01:35:28;;;;;;;4.03;1.50;;;9.90;1.00;;;;;;5104756;27;20481;-70
2023/12/25 01:37:55;;;;;;;4.87;1.47;;;9.90;1.00;;;;;;5105559;27;20492;-70
2023/12/25 01:40:22;;;;;;;4.23;1.90;;;9.90;1.00;;;;;;5108585;27;21044;-71
2023/12/25 01:42:48;;;;;;;4.27;1.90;;;9.90;1.00;;;;;;5108737;27;20469;-70
2023/12/25 01:45:15;;;;;;;5.63;1.70;;;10.00;1.00;;;;;;5115207;27;20992;-72
2023/12/25 01:47:42;;;;;;;4.00;2.00;;;10.00;1.00;;;;;;5112606;27;20479;-70
2023/12/25 01:50:12;;;;;;;2.37;1.27;;;10.00;1.00;;;;;;5110516;27;21176;-72
2023/12/25 01:52:39;;;;;;;2.30;1.20;;;10.00;1.00;;;;;;5109801;27;20508;-71
2023/12/25 01:55:07;;;;;;;5.10;1.83;;;10.00;1.00;;;;;;5108406;27;20969;-75
2023/12/25 01:57:34;;;;;;;4.90;1.70;;;10.00;1.00;;;;;;5111492;27;20533;-74
2023/12/25 02:00:01;;;;;;;4.90;1.97;;;10.00;1.00;;;;;;5109370;27;20474;-75
2023/12/25 02:02:28;;;;;;;2.70;1.73;;;10.00;1.00;;;;;;5110962;27;20478;-75
2023/12/25 02:04:55;;;;;;;4.90;1.50;;;10.00;1.00;;;;;;5107962;27;20463;-75
2023/12/25 02:07:23;;;;;;;5.10;1.70;;;10.00;1.00;;;;;;5109722;27;20546;-75
2023/12/25 02:09:51;;;;;;;3.43;2.13;;;10.00;1.00;;;;;;5110324;27;20479;-75
2023/12/25 02:12:18;;;;;;;3.37;1.43;;;10.00;1.00;;;;;;5106621;27;20577;-74
2023/12/25 02:14:45;;;;;;;1.90;1.57;;;10.00;1.00;;;;;;5108300;27;20471;-74
2023/12/25 02:17:13;;;;;;;5.63;2.40;;;10.00;1.00;;;;;;5110641;27;20487;-75
2023/12/25 02:19:43;;;;;;;6.10;1.70;;;9.90;1.00;;;;;;5115507;27;20444;-75
2023/12/25 02:22:11;;;;;;;3.20;1.20;;;9.90;1.00;;;;;;5108470;27;20460;-75
2023/12/25 02:24:46;;;;;;;3.40;1.83;;;10.00;1.00;;;;;;5109181;27;20460;-75
2023/12/25 02:27:14;;;;;;;2.90;1.17;;;10.00;1.00;;;;;;5108692;27;20468;-74
2023/12/25 02:29:41;;;;;;;6.17;3.20;;;10.00;1.00;;;;;;5116320;27;20478;-76
2023/12/25 02:32:08;;;;;;;6.10;1.83;;;10.00;1.00;;;;;;5109718;27;20489;-75
2023/12/25 02:34:35;;;;;;;6.97;6.30;;;10.10;1.00;;;;;;5106178;27;20454;-76
2023/12/25 02:37:02;;;;;;;10.33;2.80;;;10.10;1.00;;;;;;5107125;27;20528;-75
2023/12/25 02:39:29;;;;;;;4.93;2.10;;;10.10;1.00;;;;;;5113546;27;20465;-77
2023/12/25 02:41:56;;;;;;;3.90;3.00;;;10.10;1.00;;;;;;5111523;27;21012;-75
2023/12/25 02:44:24;;;;;;;2.80;1.73;;;10.10;1.00;;;;;;5110998;27;20539;-77
2023/12/25 02:46:51;;;;;;;5.50;3.30;;;10.10;1.00;;;;;;5113334;27;20565;-74
2023/12/25 02:49:18;;;;;;;3.13;1.50;;;10.10;1.00;;;;;;5108116;27;20553;-74
2023/12/25 02:51:45;;;;;;;6.63;2.23;;;10.10;1.00;;;;;;5113525;27;20552;-77
2023/12/25 02:54:13;;;;;;;4.00;1.67;;;10.10;1.00;;;;;;5107505;27;20541;-74
2023/12/25 02:56:40;;;;;;;4.57;1.70;;;10.20;1.00;;;;;;5109024;27;20965;-76
2023/12/25 02:59:07;;;;;;;3.63;1.57;;;10.20;1.00;;;;;;5108645;27;21253;-75
2023/12/25 03:01:35;;;;;;;2.27;1.60;;;10.10;1.00;;;;;;5107109;27;20546;-75
2023/12/25 03:04:02;;;;;;;3.67;1.73;;;10.20;1.00;;;;;;5109649;27;20458;-76
2023/12/25 03:06:30;;;;;;;2.93;1.63;;;10.20;1.00;;;;;;5111789;27;20540;-69
2023/12/25 03:08:57;;;;;;;5.53;1.93;;;10.20;1.00;;;;;;5111172;27;20458;-69
2023/12/25 03:11:24;;;;;;;3.60;1.50;;;10.20;1.00;;;;;;5110964;27;20492;-70
2023/12/25 03:13:51;;;;;;;6.33;2.00;;;10.20;1.00;;;;;;5110070;27;21309;-68
2023/12/25 03:16:19;;;;;;;3.50;2.33;;;10.20;1.00;;;;;;5110120;27;20962;-69
2023/12/25 03:18:49;;;;;;;2.40;1.47;;;10.20;1.00;;;;;;5110824;27;20525;-71
2023/12/25 03:21:16;;;;;;;3.13;1.80;;;10.20;1.00;;;;;;5107638;27;20480;-70
2023/12/25 03:23:43;;;;;;;3.40;1.80;;;10.20;1.00;;;;;;5108960;27;20453;-70
2023/12/25 03:26:10;;;;;;;4.67;2.20;;;10.20;1.00;;;;;;5107110;27;21040;-69
2023/12/25 03:28:39;;;;;;;3.23;1.60;;;10.20;1.00;;;;;;5108602;27;21245;-71
2023/12/25 03:31:06;;;;;;;2.27;1.80;;;10.20;1.00;;;;;;5109902;27;20531;-70
2023/12/25 03:33:33;;;;;;;3.33;1.67;;;10.10;1.00;;;;;;5109104;27;20449;-70
2023/12/25 03:36:04;;;;;;;3.03;1.53;;;10.10;1.00;;;;;;5110947;27;20545;-72
2023/12/25 03:38:33;;;;;;;3.13;1.60;;;10.10;1.00;;;;;;5112136;27;20462;-71
2023/12/25 03:41:00;;;;;;;4.23;1.93;;;10.10;1.00;;;;;;5117878;27;20567;-70
2023/12/25 03:43:27;;;;;;;3.60;1.90;;;10.00;1.00;;;;;;5115739;27;20544;-71
2023/12/25 03:45:54;;;;;;;2.13;1.70;;;10.00;1.00;;;;;;5115374;27;20547;-72
2023/12/25 03:48:21;;;;;;;4.80;1.60;;;10.00;1.00;;;;;;5112159;27;21173;-72
2023/12/25 03:50:48;;;;;;;2.13;1.60;;;10.00;1.00;;;;;;5110992;27;20472;-70
2023/12/25 03:53:16;;;;;;;1.50;1.40;;;10.00;1.00;;;;;;5114161;27;20931;-69
2023/12/25 03:55:43;;;;;;;2.60;1.60;;;10.00;1.00;;;;;;5111868;27;20518;-70
2023/12/25 03:58:10;;;;;;;4.93;1.70;;;9.90;1.00;;;;;;5113615;27;20556;-70
2023/12/25 04:00:37;;;;;;;1.80;1.43;;;9.90;1.00;;;;;;5113852;27;20485;-70
2023/12/25 04:03:04;;;;;;;3.90;1.63;;;9.90;1.00;;;;;;5111713;27;21068;-70
2023/12/25 04:05:32;;;;;;;3.10;1.30;;;9.90;1.00;;;;;;5114267;27;20516;-69
2023/12/25 04:07:59;;;;;;;4.90;1.40;;;9.90;1.00;;;;;;5112996;27;20522;-70
2023/12/25 04:10:27;;;;;;;1.93;1.43;;;9.90;1.00;;;;;;5112339;27;20469;-69
2023/12/25 04:12:54;;;;;;;6.60;2.20;;;9.90;1.00;;;;;;5113790;27;20457;-70
2023/12/25 04:15:20;;;;;;;3.03;1.73;;;9.90;1.00;;;;;;5113702;27;20541;-74
2023/12/25 04:17:47;;;;;;;3.53;1.47;;;9.90;1.00;;;;;;5115040;27;20477;-75
2023/12/25 04:20:15;;;;;;;3.90;1.90;;;9.90;1.00;;;;;;5112475;27;20466;-75
2023/12/25 04:22:42;;;;;;;2.57;1.50;;;9.90;1.00;;;;;;5112521;27;20477;-75
2023/12/25 04:25:09;;;;;;;3.13;1.70;;;9.90;1.00;;;;;;5111662;27;20442;-75
2023/12/25 04:27:37;;;;;;;2.67;1.67;;;9.90;1.00;;;;;;5114802;27;20462;-75
2023/12/25 04:30:05;;;;;;;3.77;1.50;;;10.00;1.00;;;;;;5110871;27;20546;-75
2023/12/25 04:32:32;;;;;;;5.47;1.80;;;9.90;1.00;;;;;;5112962;28;20819;-74
2023/12/25 04:34:59;;;;;;;3.97;1.40;;;9.90;1.00;;;;;;5111357;27;20515;-76
2023/12/25 04:37:26;;;;;;;2.30;1.10;;;9.90;1.00;;;;;;5111049;27;20978;-73
2023/12/25 04:39:53;;;;;;;4.57;1.50;;;10.00;1.00;;;;;;5115817;27;20523;-76
2023/12/25 04:42:20;;;;;;;3.60;1.60;;;10.00;1.00;;;;;;5112424;27;20519;-76
2023/12/25 04:44:48;;;;;;;3.60;1.97;;;10.00;1.00;;;;;;5115212;27;20456;-75
2023/12/25 04:47:15;;;;;;;2.23;1.50;;;10.10;1.00;;;;;;5111598;27;20441;-75
2023/12/25 04:49:41;;;;;;;3.63;1.70;;;10.10;1.00;;;;;;5111937;27;20548;-75
2023/12/25 04:52:08;;;;;;;3.20;1.50;;;10.10;1.00;;;;;;5111750;27;20468;-75
2023/12/25 04:54:35;;;;;;;2.10;1.70;;;10.10;1.00;;;;;;5112165;27;21027;-75
2023/12/25 04:57:02;;;;;;;2.27;1.33;;;10.20;1.00;;;;;;5108577;27;20522;-75
2023/12/25 04:59:29;;;;;;;2.50;2.03;;;10.20;1.00;;;;;;5114669;27;20504;-75
2023/12/25 05:02:00;;;;;;;1.73;1.50;;;10.20;1.00;;;;;;5114878;27;20520;-75
2023/12/25 05:04:27;;;;;;;3.13;1.63;;;10.10;1.00;;;;;;5104755;27;20486;-76
2023/12/25 05:06:54;;;;;;;4.90;1.87;;;10.10;1.00;;;;;;5108831;27;21215;-75
2023/12/25 05:09:21;;;;;;;3.00;1.40;;;10.10;1.00;;;;;;5111382;27;20462;-74
2023/12/25 05:11:48;;;;;;;3.50;1.73;;;10.10;1.00;;;;;;5107271;27;20454;-74
2023/12/25 05:14:15;;;;;;;2.40;1.13;;;10.10;1.00;;;;;;5111380;27;20473;-74
2023/12/25 05:16:42;;;;;;;3.17;1.43;;;10.10;1.00;;;;;;5110205;27;20462;-76
2023/12/25 05:19:12;;;;;;;3.70;1.73;;;10.20;1.00;;;;;;5112860;27;20466;-75
2023/12/25 05:21:39;;;;;;;1.77;1.63;;;10.20;1.00;;;;;;5112448;27;20462;-74
2023/12/25 05:24:07;;;;;;;4.80;1.80;;;10.20;1.00;;;;;;5107368;27;20437;-74
2023/12/25 05:26:34;;;;;;;2.80;1.50;;;10.30;1.00;;;;;;5110889;27;20494;-70
2023/12/25 05:29:01;;;;;;;1.40;1.27;;;10.30;1.00;;;;;;5109680;27;20551;-71
2023/12/25 05:31:27;;;;;;;1.90;1.10;;;10.30;1.00;;;;;;5108636;27;20458;-71
2023/12/25 05:33:54;;;;;;;3.10;1.47;;;10.30;1.00;;;;;;5109940;27;20531;-74
2023/12/25 05:36:23;;;;;;;1.60;1.30;;;10.30;1.00;;;;;;5111650;27;20509;-69
2023/12/25 05:38:52;;;;;;;3.43;1.60;;;10.30;1.00;;;;;;5109698;27;20549;-73
2023/12/25 05:41:19;;;;;;;5.13;1.40;;;10.40;1.00;;;;;;5110272;27;20891;-76
2023/12/25 05:43:45;;;;;;;3.07;1.43;;;10.40;1.00;;;;;;5109871;27;20462;-70
2023/12/25 05:46:13;;;;;;;2.50;1.40;;;10.30;1.00;;;;;;5107783;27;20450;-71
2023/12/25 05:48:40;;;;;;;3.20;1.53;;;10.40;1.00;;;;;;5106419;27;20569;-69
2023/12/25 05:51:07;;;;;;;5.23;1.37;;;10.30;1.00;;;;;;5109326;27;20464;-70
2023/12/25 05:53:36;;;;;;;3.03;1.77;;;10.30;1.00;;;;;;5113395;27;20489;-70
2023/12/25 05:56:03;;;;;;;3.33;1.60;;;10.30;1.00;;;;;;5109899;27;20459;-69
2023/12/25 05:58:30;;;;;;;3.77;2.00;;;10.30;1.00;;;;;;5111231;27;20507;-69
2023/12/25 06:00:57;;;;;;;7.20;1.70;;;10.30;1.00;;;;;;5111911;27;20546;-71
2023/12/25 06:03:24;;;;;;;4.00;1.90;;;10.40;1.00;;;;;;5109313;27;20616;-69
2023/12/25 06:05:51;;;;;;;4.67;1.87;;;10.40;1.00;;;;;;5107295;27;20577;-69
2023/12/25 06:08:19;;;;;;;2.70;1.60;;;10.40;1.00;;;;;;5107641;27;21024;-70
2023/12/25 06:10:50;;;;;;;1.70;1.50;;;10.40;1.00;;;;;;5110418;27;20458;-71
2023/12/25 06:13:18;;;;;;;5.13;1.50;;;10.50;1.00;;;;;;5109096;27;20973;-70
2023/12/25 06:15:45;;;;;;;3.00;1.13;;;10.50;1.00;;;;;;5109849;27;21185;-71
2023/12/25 06:18:12;;;;;;;2.37;1.30;;;10.60;1.00;;;;;;5108494;27;20461;-69
2023/12/25 06:20:38;;;;;;;2.50;1.20;;;10.70;1.00;;;;;;5109506;27;20512;-72
2023/12/25 06:23:05;;;;;;;3.90;1.40;;;10.70;1.00;;;;;;5112551;27;20635;-70
2023/12/25 06:25:32;;;;;;;4.73;1.40;;;10.80;1.00;;;;;;5110400;27;20660;-70
2023/12/25 06:28:01;;;;;;;4.40;1.50;;;10.80;1.00;;;;;;5112521;27;21227;-69
2023/12/25 06:30:28;;;;;;;2.50;1.70;;;10.80;1.00;;;;;;5112178;27;20478;-73
2023/12/25 06:32:55;;;;;;;2.10;1.37;;;10.80;1.00;;;;;;5104237;27;21005;-74
2023/12/25 06:35:21;;;;;;;4.30;1.40;;;10.80;1.00;;;;;;5110443;27;20460;-71
2023/12/25 06:37:51;;;;;;;4.00;1.30;;;10.80;1.00;;;;;;5107002;27;20988;-70
2023/12/25 06:40:18;;;;;;;3.17;1.40;;;10.80;1.00;;;;;;5113993;27;20462;-70
2023/12/25 06:42:45;;;;;;;4.93;1.57;;;10.90;1.00;;;;;;5111238;27;20989;-73
2023/12/25 06:45:14;;;;;;;4.03;1.70;;;10.90;1.00;;;;;;5109759;27;20542;-70
2023/12/25 06:47:41;;;;;;;2.90;1.50;;;10.90;1.00;;;;;;5111255;27;20445;-71
2023/12/25 06:50:08;;;;;;;5.20;1.80;;;11.00;1.00;;;;;;5113123;27;20551;-70
2023/12/25 06:52:36;;;;;;;5.33;1.73;;;11.00;1.00;;;;;;5110450;27;20520;-70
2023/12/25 06:55:04;;;;;;;2.73;1.77;;;11.00;1.00;;;;;;5107865;27;20445;-74
2023/12/25 06:57:31;;;;;;;3.00;1.20;;;11.10;1.00;;;;;;5110700;27;20508;-70
2023/12/25 06:59:58;;;;;;;3.53;1.40;;;11.20;1.00;;;;;;5109568;27;20458;-74
2023/12/25 07:02:27;;;;;;;6.90;1.67;;;11.20;1.00;;;;;;5110013;27;21361;-71
2023/12/25 07:04:53;;;;;;;5.70;1.60;;;11.30;1.00;;;;;;5108752;27;20961;-70
2023/12/25 07:07:20;;;;;;;4.73;1.90;;;11.40;1.00;;;;;;5115312;27;21395;-69
2023/12/25 07:09:47;;;;;;;3.10;1.73;;;11.40;1.00;;;;;;5113287;27;20540;-70
2023/12/25 07:12:14;;;;;;;3.03;2.00;;;11.40;1.00;;;;;;5111493;27;20449;-70
2023/12/25 07:14:45;;;;;;;4.30;1.63;;;11.30;1.00;;;;;;5110579;27;20490;-70
2023/12/25 07:17:12;;;;;;;3.10;1.97;;;11.40;1.00;;;;;;5096504;27;20462;-71
2023/12/25 07:19:41;;;;;;;1.83;1.30;;;11.40;1.00;;;;;;5091869;28;20458;-70
2023/12/25 07:22:07;;;;;;;2.53;1.30;;;11.30;1.00;;;;;;5091217;28;20482;-70
2023/12/25 07:24:34;;;;;;;4.57;1.83;;;11.30;1.00;;;;;;5085352;28;20561;-74
2023/12/25 07:27:01;;;;;;;3.63;1.63;;;11.40;1.00;;;;;;5089038;28;21236;-71
2023/12/25 07:29:30;;;;;;;2.80;1.50;;;11.40;1.00;;;;;;5088927;28;20464;-70
2023/12/25 07:31:57;;;;;;;1.80;1.30;;;11.40;1.00;;;;;;5087175;28;20512;-73
2023/12/25 07:34:24;;;;;;;3.80;1.67;;;11.10;1.00;;;;;;5089225;28;20470;-70
2023/12/25 07:36:53;;;;;;;2.20;1.50;;;10.80;1.00;;;;;;5083940;28;20872;-73
2023/12/25 07:39:19;;;;;;;3.83;1.27;;;10.60;1.00;;;;;;5089439;28;20970;-70
2023/12/25 07:41:46;;;;;;;4.33;1.70;;;10.50;1.00;;;;;;5090655;28;20472;-70
2023/12/25 07:44:13;;;;;;;3.87;1.93;;;10.40;1.00;;;;;;5088240;28;20474;-69
2023/12/25 07:46:40;;;;;;;4.73;1.40;;;10.30;1.00;;;;;;5088640;28;20462;-71
2023/12/25 07:49:07;;;;;;;2.40;1.80;;;10.30;1.00;;;;;;5092166;28;20439;-71
2023/12/25 07:51:34;;;;;;;4.77;1.47;;;10.30;1.00;;;;;;5088942;28;20546;-71
2023/12/25 07:54:03;;;;;;;2.67;1.70;;;10.20;1.00;;;;;;5088986;28;20470;-72
2023/12/25 07:56:30;;;;;;;3.00;1.30;;;10.20;1.00;;;;;;5090591;28;20478;-72
2023/12/25 07:58:57;;;;;;;3.43;1.50;;;10.20;1.00;;;;;;5088069;28;20542;-71
2023/12/25 08:01:24;;;;;;;6.03;2.00;;;10.20;1.00;;;;;;5088516;28;20541;-72
2023/12/25 08:03:51;;;;;;;3.50;1.43;;;10.20;1.00;;;;;;5087971;28;20478;-71
2023/12/25 08:06:18;;;;;;;3.30;1.40;;;10.20;1.00;;;;;;5091419;28;20608;-72
2023/12/25 08:08:47;;;;;;;3.63;1.77;;;10.30;1.00;;;;;;5086634;28;20539;-71
2023/12/25 08:11:15;;;;;;;2.00;1.50;;;10.30;1.00;;;;;;5093076;28;20462;-71
2023/12/25 08:13:42;;;;;;;1.97;1.40;;;10.30;1.00;;;;;;5086068;28;20455;-71
2023/12/25 08:16:11;;;;;;;2.60;1.10;;;10.40;1.00;;;;;;5093411;27;20456;-72
2023/12/25 08:18:37;;;;;;;7.00;1.60;;;10.50;1.00;;;;;;5108908;27;21605;-73
2023/12/25 08:21:05;;;;;;;1.43;1.30;;;10.60;1.00;;;;;;5105459;27;20463;-71
2023/12/25 08:23:32;;;;;;;3.23;1.27;;;10.60;1.00;;;;;;5111579;27;20544;-72
2023/12/25 08:26:00;;;;;;;1.53;0.97;;;10.70;1.00;;;;;;5115015;27;20465;-73
2023/12/25 08:28:29;;;;;;;1.80;1.33;;;10.70;1.00;;;;;;5114009;27;20464;-70
2023/12/25 08:30:55;;;;;;;3.53;1.23;;;10.80;1.00;;;;;;5111771;27;20504;-72
2023/12/25 08:33:22;;;;;;;2.87;1.20;;;10.80;1.00;;;;;;5117125;27;20546;-73
2023/12/25 08:35:50;;;;;;;4.03;1.60;;;10.90;1.00;;;;;;5109264;27;20465;-71
2023/12/25 08:38:17;;;;;;;3.47;1.30;;;10.80;1.00;;;;;;5112403;27;20478;-71
2023/12/25 08:40:44;;;;;;;3.57;1.20;;;10.90;1.00;;;;;;5113368;27;20462;-72
2023/12/25 08:43:10;;;;;;;3.33;1.10;;;10.90;1.00;;;;;;5112799;27;20538;-71
2023/12/25 08:45:39;;;;;;;3.80;1.57;;;10.80;1.00;;;;;;5114689;27;20557;-74
2023/12/25 08:48:06;;;;;;;3.93;1.60;;;10.90;1.00;;;;;;5109318;27;20531;-72
2023/12/25 08:50:33;;;;;;;3.57;1.23;;;10.90;1.00;;;;;;5110382;27;20474;-76
2023/12/25 08:53:00;;;;;;;2.80;1.17;;;11.00;1.00;;;;;;5110889;27;20455;-74
2023/12/25 08:55:27;;;;;;;2.70;1.40;;;11.00;1.00;;;;;;5111531;27;20473;-72
2023/12/25 08:57:54;;;;;;;3.60;1.40;;;11.00;1.00;;;;;;5114464;27;20928;-73
2023/12/25 09:00:22;;;;;;;2.60;1.53;;;11.00;1.00;;;;;;5110927;27;20457;-72
2023/12/25 09:02:50;;;;;;;3.77;1.20;;;11.10;1.00;;;;;;5113356;27;20457;-72
2023/12/25 09:05:17;;;;;;;5.57;2.07;;;11.00;1.00;;;;;;5111160;27;20489;-72
2023/12/25 09:07:44;;;;;;;4.97;2.87;;;11.10;1.00;;;;;;5112560;27;20461;-72
2023/12/25 09:10:11;;;;;;;4.07;2.07;;;11.20;1.00;;;;;;5110156;27;20494;-75
2023/12/25 09:12:39;;;;;;;1.63;1.30;;;11.40;1.00;;;;;;5110056;27;20517;-73
2023/12/25 09:15:07;;;;;;;2.63;1.73;;;11.40;1.00;;;;;;5107590;27;20469;-71
2023/12/25 09:17:34;;;;;;;3.27;1.43;;;11.40;1.00;;;;;;5112559;27;20945;-73
2023/12/25 09:20:02;;;;;;;4.77;1.70;;;11.40;1.00;;;;;;5113187;27;20457;-71
2023/12/25 09:22:29;;;;;;;4.10;1.50;;;11.50;1.00;;;;;;5113514;27;20459;-71
2023/12/25 09:24:56;;;;;;;4.13;1.40;;;11.50;1.00;;;;;;5107888;27;21318;-72
2023/12/25 09:27:23;;;;;;;5.50;1.80;;;11.50;1.00;;;;;;5110430;27;21053;-72
2023/12/25 09:29:50;;;;;;;2.53;1.43;;;11.50;1.00;;;;;;5109002;27;20463;-73
2023/12/25 09:32:17;;;;;;;3.23;1.57;;;11.50;1.00;;;;;;5111527;27;20852;-72
2023/12/25 09:34:44;;;;;;;4.43;1.30;;;11.50;1.00;;;;;;5110666;27;20496;-72
2023/12/25 09:37:12;;;;;;;7.50;2.27;;;11.50;1.00;;;;;;5106753;27;20463;-72
2023/12/25 09:39:39;;;;;;;3.80;1.43;;;11.70;1.00;;;;;;5107226;27;20556;-71
2023/12/25 09:42:08;;;;;;;3.70;1.80;;;11.70;1.00;;;;;;5107656;27;20444;-74
2023/12/25 09:44:37;;;;;;;5.30;1.40;;;11.80;1.00;;;;;;5106593;27;20556;-72
2023/12/25 09:47:08;;;;;;;2.37;1.30;;;11.70;1.00;;;;;;5112313;27;20450;-75
2023/12/25 09:49:36;;;;;;;2.57;1.73;;;11.60;1.00;;;;;;5112327;27;20477;-72
2023/12/25 09:52:04;;;;;;;4.10;1.90;;;11.60;1.00;;;;;;5108249;27;20465;-71
2023/12/25 09:54:32;;;;;;;7.03;2.00;;;11.50;1.00;;;;;;5109020;27;21063;-71
2023/12/25 09:57:01;;;;;;;5.60;1.90;;;11.60;1.00;;;;;;5108205;27;20510;-71
2023/12/25 09:59:29;;;;;;;4.13;1.40;;;11.70;1.00;;;;;;5108872;27;20480;-71
2023/12/25 10:01:57;;;;;;;3.37;1.70;;;11.80;1.00;;;;;;5108193;27;20544;-71
2023/12/25 10:04:28;;;;;;;3.20;1.60;;;11.80;1.00;;;;;;5108080;27;20465;-71
2023/12/25 10:06:55;;;;;;;4.80;1.80;;;11.70;1.00;;;;;;5106645;27;21159;-72
2023/12/25 10:09:22;;;;;;;5.27;1.97;;;11.80;1.00;;;;;;5106728;27;20457;-72
2023/12/25 10:11:50;;;;;;;4.50;1.80;;;11.80;1.00;;;;;;5108470;27;20458;-73
2023/12/25 10:14:17;;;;;;;5.70;1.73;;;11.70;1.00;;;;;;5110592;27;20465;-70
2023/12/25 10:16:44;;;;;;;2.40;1.50;;;11.60;1.00;;;;;;5109060;27;20556;-70
2023/12/25 10:19:12;;;;;;;3.80;1.77;;;11.50;1.00;;;;;;5107387;27;20450;-73
2023/12/25 10:21:43;;;;;;;2.23;1.40;;;11.50;1.00;;;;;;5105490;27;20549;-75
2023/12/25 10:24:14;;;;;;;3.07;1.60;;;11.50;1.00;;;;;;5110732;27;20488;-73
2023/12/25 10:26:42;;;;;;;3.73;1.37;;;11.60;1.00;;;;;;5110193;27;21149;-73
2023/12/25 10:29:11;;;;;;;4.00;1.47;;;11.70;1.00;;;;;;5111356;27;20548;-72
2023/12/25 10:31:40;;;;;;;3.03;1.63;;;11.80;1.00;;;;;;5109251;27;20466;-70
2023/12/25 10:34:08;;;;;;;4.10;1.67;;;11.80;1.00;;;;;;5112770;27;20465;-72
2023/12/25 10:36:35;;;;;;;2.47;1.60;;;11.70;1.00;;;;;;5113162;27;20475;-71
2023/12/25 10:39:02;;;;;;;3.30;2.10;;;11.70;1.00;;;;;;5107541;27;20480;-71
2023/12/25 10:41:33;;;;;;;5.27;2.00;;;11.60;1.00;;;;;;5109941;27;20553;-71
2023/12/25 10:44:02;;;;;;;3.90;1.90;;;11.60;1.00;;;;;;5110881;27;20470;-71
2023/12/25 10:46:34;;;;;;;4.90;2.23;;;11.60;1.00;;;;;;5110338;27;20475;-73
2023/12/25 10:49:03;;;;;;;3.20;1.90;;;11.60;1.00;;;;;;5110074;27;20454;-74
2023/12/25 10:51:32;;;;;;;6.77;2.20;;;11.60;1.00;;;;;;5110426;27;20525;-72
2023/12/25 10:54:02;;;;;;;4.23;1.90;;;11.60;1.00;;;;;;5110719;27;20486;-72
2023/12/25 10:56:31;;;;;;;4.13;1.70;;;11.60;1.00;;;;;;5114522;27;20450;-72
2023/12/25 10:59:03;;;;;;;3.17;1.73;;;11.60;1.00;;;;;;5111746;27;20487;-70
2023/12/25 11:01:35;;;;;;;2.67;1.70;;;11.60;1.00;;;;;;5117652;27;20487;-71
2023/12/25 11:04:02;;;;;;;3.43;1.70;;;11.60;1.00;;;;;;5112332;27;21327;-71
2023/12/25 11:06:30;;;;;;;4.10;1.57;;;11.70;1.00;;;;;;5109345;27;20462;-71
2023/12/25 11:08:58;;;;;;;3.77;2.40;;;11.80;1.00;;;;;;5105412;27;20597;-72
2023/12/25 11:11:29;;;;;;;5.00;2.00;;;11.90;1.00;;;;;;5109103;27;20549;-74
2023/12/25 11:13:57;;;;;;;3.13;1.73;;;11.80;1.00;;;;;;5111875;27;20463;-72
2023/12/25 11:16:24;;;;;;;4.97;2.50;;;11.90;1.00;;;;;;5108942;27;20502;-76
2023/12/25 11:18:52;;;;;;;3.10;1.80;;;12.00;1.00;;;;;;5107347;27;20565;-75
2023/12/25 11:21:29;;;;;;;2.40;1.80;;;12.20;1.00;;;;;;5110515;27;20476;-76
2023/12/25 11:23:57;;;;;;;5.20;2.03;;;12.30;1.00;;;;;;5109242;27;20470;-76
2023/12/25 11:26:24;;;;;;;2.10;1.77;;;12.30;1.00;;;;;;5114293;27;20455;-77
2023/12/25 11:28:56;;;;;;;5.20;1.93;;;12.30;1.00;;;;;;5113238;27;20458;-77
2023/12/25 11:31:24;;;;;;;3.03;1.73;;;12.40;1.00;;;;;;5110922;27;20521;-77
2023/12/25 11:33:55;;;;;;;4.53;1.83;;;12.30;1.00;;;;;;5104379;27;20554;-76
2023/12/25 11:36:29;;;;;;;3.77;1.97;;;12.30;1.00;;;;;;5108643;27;21046;-77
2023/12/25 11:38:58;;;;;;;3.57;1.67;;;12.30;1.00;;;;;;5113285;27;21392;-77
2023/12/25 11:41:25;;;;;;;5.30;1.97;;;12.30;1.00;;;;;;5109589;27;20554;-79
2023/12/25 11:43:52;;;;;;;7.23;2.70;;;12.20;1.00;;;;;;5110087;27;20476;-78
2023/12/25 11:46:20;;;;;;;4.60;2.03;;;12.30;1.00;;;;;;5102776;27;20455;-75
2023/12/25 11:48:48;;;;;;;3.93;2.07;;;12.30;1.00;;;;;;5101905;27;21975;-74
2023/12/25 11:51:25;;;;;;;3.47;1.90;;;12.40;1.00;;;;;;5101997;27;20585;-77
2023/12/25 11:53:57;;;;;;;7.70;2.30;;;12.40;1.00;;;;;;5104637;27;20474;-76
2023/12/25 11:56:25;;;;;;;5.47;2.60;;;12.40;1.00;;;;;;5107143;27;20518;-77
2023/12/25 11:58:53;;;;;;;3.00;2.00;;;12.40;1.00;;;;;;5106484;27;20934;-77
2023/12/25 12:01:22;;;;;;;5.40;2.23;;;12.30;1.00;;;;;;5107613;27;20491;-75
2023/12/25 12:03:50;;;;;;;3.00;1.87;;;12.20;1.00;;;;;;5108628;27;21142;-78
2023/12/25 12:06:19;;;;;;;3.10;2.60;;;12.10;1.00;;;;;;5105567;27;20458;-78
2023/12/25 12:08:48;;;;;;;4.50;2.60;;;12.10;1.00;;;;;;5110606;27;20908;-78
2023/12/25 12:11:16;;;;;;;6.23;2.67;;;12.10;1.00;;;;;;5109469;27;20460;-76
2023/12/25 12:13:43;;;;;;;3.10;2.20;;;12.10;1.00;;;;;;5111513;27;20995;-77
2023/12/25 12:16:11;;;;;;;5.27;2.30;;;12.10;1.00;;;;;;5111224;27;20452;-76
2023/12/25 12:18:38;;;;;;;4.33;2.50;;;12.00;1.00;;;;;;5113078;27;20454;-77
2023/12/25 12:21:06;;;;;;;7.23;2.70;;;12.00;1.00;;;;;;5110373;27;21273;-76
2023/12/25 12:23:34;;;;;;;6.43;2.47;;;12.10;1.00;;;;;;5112740;27;20468;-77
2023/12/25 12:26:13;;;;;;;6.73;3.20;;;12.10;1.00;;;;;;5109807;27;20449;-76
2023/12/25 12:28:40;;;;;;;4.87;2.17;;;12.10;1.00;;;;;;5110024;27;20464;-76
2023/12/25 12:31:07;;;;;;;8.17;3.10;;;12.00;1.00;;;;;;5107833;27;20494;-77
2023/12/25 12:33:34;;;;;;;7.93;3.03;;;12.20;1.00;;;;;;5108449;27;21183;-75
2023/12/25 12:36:03;;;;;;;5.10;2.23;;;12.40;1.00;;;;;;5110945;27;20468;-76
2023/12/25 12:38:30;;;;;;;5.10;2.80;;;12.50;1.00;;;;;;5111936;27;20658;-74
2023/12/25 12:40:57;;;;;;;6.23;2.33;;;12.30;1.00;;;;;;5110717;27;20462;-75
2023/12/25 12:43:25;;;;;;;4.23;2.47;;;12.30;1.00;;;;;;5112412;27;20445;-76
2023/12/25 12:45:52;;;;;;;7.40;2.10;;;12.30;1.00;;;;;;5105093;27;20553;-73
2023/12/25 12:48:19;;;;;;;7.40;2.27;;;12.30;1.00;;;;;;5112185;27;20754;-75
2023/12/25 12:50:46;;;;;;;3.87;2.57;;;12.50;1.00;;;;;;5110333;27;20456;-75
2023/12/25 12:53:13;;;;;;;5.57;2.90;;;13.00;1.00;;;;;;5110820;27;20579;-75
2023/12/25 12:55:40;;;;;;;4.37;1.93;;;13.50;1.00;;;;;;5107353;27;20452;-76
2023/12/25 12:58:07;;;;;;;4.30;2.57;;;14.00;1.00;;;;;;5112779;27;20474;-75
2023/12/25 13:00:36;;;;;;;3.10;1.87;;;14.40;1.00;;;;;;5111290;27;20949;-75